sensor_id;sensor_type;location;lat;lon;timestamp;pressure;altitude;pressure_sealevel;temperature
64600;BMP280;6553;48.412;9.514;2023-02-04T00:01:37;71714.09;;;20.30
64600;BMP280;6553;48.412;9.514;2023-02-04T00:04:03;71710.25;;;20.29
64600;BMP280;6553;48.412;9.514;2023-02-04T00:06:28;71708.13;;;20.27
64600;BMP280;6553;48.412;9.514;2023-02-04T00:08:54;71709.19;;;20.28
64600;BMP280;6553;48.412;9.514;2023-02-04T00:11:20;71705.91;;;20.27
64600;BMP280;6553;48.412;9.514;2023-02-04T00:13:46;71703.13;;;20.27
64600;BMP280;6553;48.412;9.514;2023-02-04T00:16:11;71703.66;;;20.28
64600;BMP280;6553;48.412;9.514;2023-02-04T00:18:37;71708.03;;;20.29
64600;BMP280;6553;48.412;9.514;2023-02-04T00:21:03;71709.75;;;20.28
64600;BMP280;6553;48.412;9.514;2023-02-04T00:23:29;71709.06;;;20.30
64600;BMP280;6553;48.412;9.514;2023-02-04T00:25:55;71710.16;;;20.31
64600;BMP280;6553;48.412;9.514;2023-02-04T00:28:20;71709.75;;;20.28
64600;BMP280;6553;48.412;9.514;2023-02-04T00:30:46;71711.34;;;20.30
64600;BMP280;6553;48.412;9.514;2023-02-04T00:33:12;71717.94;;;20.31
64600;BMP280;6553;48.412;9.514;2023-02-04T00:35:38;71706.31;;;20.30
64600;BMP280;6553;48.412;9.514;2023-02-04T00:38:05;71707.47;;;20.29
64600;BMP280;6553;48.412;9.514;2023-02-04T00:40:32;71707.47;;;20.29
64600;BMP280;6553;48.412;9.514;2023-02-04T00:42:58;71705.25;;;20.29
64600;BMP280;6553;48.412;9.514;2023-02-04T00:45:24;71710.78;;;20.29
64600;BMP280;6553;48.412;9.514;2023-02-04T00:47:49;71712.50;;;20.28
64600;BMP280;6553;48.412;9.514;2023-02-04T00:50:16;71714.63;;;20.30
64600;BMP280;6553;48.412;9.514;2023-02-04T00:52:42;71714.63;;;20.30
64600;BMP280;6553;48.412;9.514;2023-02-04T00:55:08;71708.03;;;20.29
64600;BMP280;6553;48.412;9.514;2023-02-04T00:57:35;71704.72;;;20.29
64600;BMP280;6553;48.412;9.514;2023-02-04T01:00:01;71706.31;;;20.30
64600;BMP280;6553;48.412;9.514;2023-02-04T01:02:26;71707.38;;;20.31
64600;BMP280;6553;48.412;9.514;2023-02-04T01:04:52;71705.25;;;20.29
64600;BMP280;6553;48.412;9.514;2023-02-04T01:07:18;71705.25;;;20.29
64600;BMP280;6553;48.412;9.514;2023-02-04T01:09:43;71704.19;;;20.28
64600;BMP280;6553;48.412;9.514;2023-02-04T01:12:10;71708.03;;;20.29
64600;BMP280;6553;48.412;9.514;2023-02-04T01:14:35;71708.56;;;20.30
64600;BMP280;6553;48.412;9.514;2023-02-04T01:17:01;71711.84;;;20.30
64600;BMP280;6553;48.412;9.514;2023-02-04T01:19:27;71710.78;;;20.29
64600;BMP280;6553;48.412;9.514;2023-02-04T01:21:53;71713.47;;;20.32
64600;BMP280;6553;48.412;9.514;2023-02-04T01:24:18;71703.66;;;20.28
64600;BMP280;6553;48.412;9.514;2023-02-04T01:27:16;71709.75;;;20.28
64600;BMP280;6553;48.412;9.514;2023-02-04T01:29:42;71711.84;;;20.30
64600;BMP280;6553;48.412;9.514;2023-02-04T01:32:09;71709.75;;;20.28
64600;BMP280;6553;48.412;9.514;2023-02-04T01:34:35;71710.25;;;20.29
64600;BMP280;6553;48.412;9.514;2023-02-04T01:37:00;71713.97;;;20.32
64600;BMP280;6553;48.412;9.514;2023-02-04T01:39:26;71710.16;;;20.31
64600;BMP280;6553;48.412;9.514;2023-02-04T01:41:52;71708.03;;;20.29
64600;BMP280;6553;48.412;9.514;2023-02-04T01:44:18;71708.44;;;20.32
64600;BMP280;6553;48.412;9.514;2023-02-04T01:46:43;71708.44;;;20.32
64600;BMP280;6553;48.412;9.514;2023-02-04T01:49:10;71709.75;;;20.28
64600;BMP280;6553;48.412;9.514;2023-02-04T01:51:37;71711.34;;;20.30
64600;BMP280;6553;48.412;9.514;2023-02-04T01:54:04;71726.13;;;20.33
64600;BMP280;6553;48.412;9.514;2023-02-04T01:56:31;71712.13;;;20.36
64600;BMP280;6553;48.412;9.514;2023-02-04T01:58:57;71715.44;;;20.36
64600;BMP280;6553;48.412;9.514;2023-02-04T02:01:37;71716.63;;;20.35
64600;BMP280;6553;48.412;9.514;2023-02-04T02:04:04;71717.69;;;20.36
64600;BMP280;6553;48.412;9.514;2023-02-04T02:06:33;71721.66;;;20.34
64600;BMP280;6553;48.412;9.514;2023-02-04T02:09:00;71723.22;;;20.36
64600;BMP280;6553;48.412;9.514;2023-02-04T02:11:27;71715.44;;;20.36
64600;BMP280;6553;48.412;9.514;2023-02-04T02:13:54;71716.00;;;20.37
64600;BMP280;6553;48.412;9.514;2023-02-04T02:16:20;71724.84;;;20.37
64600;BMP280;6553;48.412;9.514;2023-02-04T02:18:46;71715.44;;;20.36
64600;BMP280;6553;48.412;9.514;2023-02-04T02:21:15;71711.63;;;20.35
64600;BMP280;6553;48.412;9.514;2023-02-04T02:23:52;71718.22;;;20.36
64600;BMP280;6553;48.412;9.514;2023-02-04T02:26:21;71721.53;;;20.37
64600;BMP280;6553;48.412;9.514;2023-02-04T02:28:48;71722.06;;;20.37
64600;BMP280;6553;48.412;9.514;2023-02-04T02:31:17;71719.28;;;20.37
64600;BMP280;6553;48.412;9.514;2023-02-04T02:33:44;71713.22;;;20.37
64600;BMP280;6553;48.412;9.514;2023-02-04T02:36:11;71714.91;;;20.36
64600;BMP280;6553;48.412;9.514;2023-02-04T02:38:37;71724.84;;;20.37
64600;BMP280;6553;48.412;9.514;2023-02-04T02:41:04;71716.53;;;20.37
64600;BMP280;6553;48.412;9.514;2023-02-04T02:43:34;71717.59;;;20.38
64600;BMP280;6553;48.412;9.514;2023-02-04T02:46:01;71715.84;;;20.39
64600;BMP280;6553;48.412;9.514;2023-02-04T02:48:27;71719.28;;;20.37
64600;BMP280;6553;48.412;9.514;2023-02-04T02:50:52;71722.06;;;20.37
64600;BMP280;6553;48.412;9.514;2023-02-04T02:53:21;71717.06;;;20.38
64600;BMP280;6553;48.412;9.514;2023-02-04T02:55:48;71723.13;;;20.38
64600;BMP280;6553;48.412;9.514;2023-02-04T02:58:31;71719.28;;;20.37
64600;BMP280;6553;48.412;9.514;2023-02-04T03:00:59;71714.81;;;20.38
64600;BMP280;6553;48.412;9.514;2023-02-04T03:03:31;71716.00;;;20.37
64600;BMP280;6553;48.412;9.514;2023-02-04T03:06:13;71727.47;;;20.40
64600;BMP280;6553;48.412;9.514;2023-02-04T03:08:42;71718.13;;;20.39
64600;BMP280;6553;48.412;9.514;2023-02-04T03:11:09;71718.13;;;20.39
64600;BMP280;6553;48.412;9.514;2023-02-04T03:13:35;71723.00;;;20.41
64600;BMP280;6553;48.412;9.514;2023-02-04T03:16:03;71720.38;;;20.38
64600;BMP280;6553;48.412;9.514;2023-02-04T03:18:30;71720.38;;;20.38
64600;BMP280;6553;48.412;9.514;2023-02-04T03:20:57;71721.00;;;20.36
64600;BMP280;6553;48.412;9.514;2023-02-04T03:23:23;71720.38;;;20.38
64600;BMP280;6553;48.412;9.514;2023-02-04T03:25:50;71719.28;;;20.37
64600;BMP280;6553;48.412;9.514;2023-02-04T03:28:17;71716.53;;;20.37
64600;BMP280;6553;48.412;9.514;2023-02-04T03:30:43;71722.59;;;20.38
64600;BMP280;6553;48.412;9.514;2023-02-04T03:33:09;71716.13;;;20.34
64600;BMP280;6553;48.412;9.514;2023-02-04T03:35:35;71714.28;;;20.38
64600;BMP280;6553;48.412;9.514;2023-02-04T03:38:01;71716.53;;;20.37
64600;BMP280;6553;48.412;9.514;2023-02-04T03:40:26;71720.88;;;20.39
64600;BMP280;6553;48.412;9.514;2023-02-04T03:42:54;71715.44;;;20.36
64600;BMP280;6553;48.412;9.514;2023-02-04T03:45:20;71717.69;;;20.36
64600;BMP280;6553;48.412;9.514;2023-02-04T03:47:45;71720.38;;;20.38
64600;BMP280;6553;48.412;9.514;2023-02-04T03:50:11;71722.06;;;20.37
64600;BMP280;6553;48.412;9.514;2023-02-04T03:52:38;71719.28;;;20.37
64600;BMP280;6553;48.412;9.514;2023-02-04T03:55:04;71717.59;;;20.38
64600;BMP280;6553;48.412;9.514;2023-02-04T03:57:30;71717.06;;;20.38
64600;BMP280;6553;48.412;9.514;2023-02-04T03:59:56;71716.53;;;20.37
64600;BMP280;6553;48.412;9.514;2023-02-04T04:02:22;71713.75;;;20.37
64600;BMP280;6553;48.412;9.514;2023-02-04T04:04:47;71720.38;;;20.38
64600;BMP280;6553;48.412;9.514;2023-02-04T04:07:13;71718.13;;;20.39
64600;BMP280;6553;48.412;9.514;2023-02-04T04:09:39;71718.22;;;20.36
64600;BMP280;6553;48.412;9.514;2023-02-04T04:12:05;71716.13;;;20.34
64600;BMP280;6553;48.412;9.514;2023-02-04T04:14:30;71717.59;;;20.38
64600;BMP280;6553;48.412;9.514;2023-02-04T04:16:56;71716.00;;;20.37
64600;BMP280;6553;48.412;9.514;2023-02-04T04:19:22;71716.41;;;20.40
64600;BMP280;6553;48.412;9.514;2023-02-04T04:21:49;71719.84;;;20.38
64600;BMP280;6553;48.412;9.514;2023-02-04T04:24:15;71720.38;;;20.38
64600;BMP280;6553;48.412;9.514;2023-02-04T04:26:40;71724.16;;;20.39
64600;BMP280;6553;48.412;9.514;2023-02-04T04:29:06;71718.75;;;20.37
64600;BMP280;6553;48.412;9.514;2023-02-04T04:31:32;71716.34;;;20.29
64600;BMP280;6553;48.412;9.514;2023-02-04T04:33:58;71713.75;;;20.37
64600;BMP280;6553;48.412;9.514;2023-02-04T04:36:23;71713.75;;;20.37
64600;BMP280;6553;48.412;9.514;2023-02-04T04:38:49;71720.38;;;20.38
64600;BMP280;6553;48.412;9.514;2023-02-04T04:41:15;71721.94;;;20.40
64600;BMP280;6553;48.412;9.514;2023-02-04T04:43:40;71723.00;;;20.41
64600;BMP280;6553;48.412;9.514;2023-02-04T04:46:06;71717.59;;;20.38
64600;BMP280;6553;48.412;9.514;2023-02-04T04:48:32;71721.41;;;20.39
64600;BMP280;6553;48.412;9.514;2023-02-04T04:50:57;71719.84;;;20.38
64600;BMP280;6553;48.412;9.514;2023-02-04T04:53:23;71722.59;;;20.38
64600;BMP280;6553;48.412;9.514;2023-02-04T04:55:49;71725.25;;;20.40
64600;BMP280;6553;48.412;9.514;2023-02-04T04:58:14;71721.41;;;20.39
64600;BMP280;6553;48.412;9.514;2023-02-04T05:00:40;71722.06;;;20.37
64600;BMP280;6553;48.412;9.514;2023-02-04T05:03:06;71715.44;;;20.36
64600;BMP280;6553;48.412;9.514;2023-02-04T05:05:32;71712.69;;;20.36
64600;BMP280;6553;48.412;9.514;2023-02-04T05:07:58;71719.28;;;20.37
64600;BMP280;6553;48.412;9.514;2023-02-04T05:10:24;71717.06;;;20.38
64600;BMP280;6553;48.412;9.514;2023-02-04T05:12:50;71720.38;;;20.38
64600;BMP280;6553;48.412;9.514;2023-02-04T05:15:15;71719.84;;;20.38
64600;BMP280;6553;48.412;9.514;2023-02-04T05:17:41;71718.22;;;20.36
64600;BMP280;6553;48.412;9.514;2023-02-04T05:20:08;71719.16;;;20.40
64600;BMP280;6553;48.412;9.514;2023-02-04T05:22:33;71717.06;;;20.38
64600;BMP280;6553;48.412;9.514;2023-02-04T05:24:59;71721.41;;;20.39
64600;BMP280;6553;48.412;9.514;2023-02-04T05:27:25;71723.13;;;20.38
64600;BMP280;6553;48.412;9.514;2023-02-04T05:29:51;71723.13;;;20.38
64600;BMP280;6553;48.412;9.514;2023-02-04T05:32:16;71717.59;;;20.38
64600;BMP280;6553;48.412;9.514;2023-02-04T05:34:42;71719.16;;;20.40
64600;BMP280;6553;48.412;9.514;2023-02-04T05:37:08;71722.59;;;20.38
64600;BMP280;6553;48.412;9.514;2023-02-04T05:39:33;71714.81;;;20.38
64600;BMP280;6553;48.412;9.514;2023-02-04T05:41:59;71718.13;;;20.39
64600;BMP280;6553;48.412;9.514;2023-02-04T05:44:25;71717.06;;;20.38
64600;BMP280;6553;48.412;9.514;2023-02-04T05:46:50;71717.06;;;20.38
64600;BMP280;6553;48.412;9.514;2023-02-04T05:49:16;71717.06;;;20.38
64600;BMP280;6553;48.412;9.514;2023-02-04T05:51:42;71718.13;;;20.39
64600;BMP280;6553;48.412;9.514;2023-02-04T05:54:08;71716.94;;;20.40
64600;BMP280;6553;48.412;9.514;2023-02-04T05:56:33;71716.94;;;20.40
64600;BMP280;6553;48.412;9.514;2023-02-04T05:58:59;71720.78;;;20.41
64600;BMP280;6553;48.412;9.514;2023-02-04T06:01:25;71724.63;;;20.42
64600;BMP280;6553;48.412;9.514;2023-02-04T06:03:50;71715.84;;;20.39
64600;BMP280;6553;48.412;9.514;2023-02-04T06:06:16;71728.56;;;20.41
64600;BMP280;6553;48.412;9.514;2023-02-04T06:08:42;71716.63;;;20.35
64600;BMP280;6553;48.412;9.514;2023-02-04T06:11:07;71722.47;;;20.40
64600;BMP280;6553;48.412;9.514;2023-02-04T06:13:33;71722.47;;;20.40
64600;BMP280;6553;48.412;9.514;2023-02-04T06:15:59;71715.84;;;20.39
64600;BMP280;6553;48.412;9.514;2023-02-04T06:18:24;71720.38;;;20.38
64600;BMP280;6553;48.412;9.514;2023-02-04T06:20:50;71720.88;;;20.39
64600;BMP280;6553;48.412;9.514;2023-02-04T06:23:17;71719.28;;;20.37
64600;BMP280;6553;48.412;9.514;2023-02-04T06:25:43;71718.13;;;20.39
64600;BMP280;6553;48.412;9.514;2023-02-04T06:28:09;71712.69;;;20.36
64600;BMP280;6553;48.412;9.514;2023-02-04T06:30:34;71712.13;;;20.36
64600;BMP280;6553;48.412;9.514;2023-02-04T06:33:01;71722.59;;;20.38
64600;BMP280;6553;48.412;9.514;2023-02-04T06:35:27;71715.44;;;20.36
64600;BMP280;6553;48.412;9.514;2023-02-04T06:37:53;71715.44;;;20.36
64600;BMP280;6553;48.412;9.514;2023-02-04T06:40:19;71715.44;;;20.36
64600;BMP280;6553;48.412;9.514;2023-02-04T06:42:44;71718.34;;;20.34
64600;BMP280;6553;48.412;9.514;2023-02-04T06:45:10;71717.59;;;20.38
64600;BMP280;6553;48.412;9.514;2023-02-04T06:47:36;71721.53;;;20.37
64600;BMP280;6553;48.412;9.514;2023-02-04T06:50:02;71713.84;;;20.35
64600;BMP280;6553;48.412;9.514;2023-02-04T06:52:28;71717.69;;;20.36
64600;BMP280;6553;48.412;9.514;2023-02-04T06:54:54;71724.31;;;20.37
64600;BMP280;6553;48.412;9.514;2023-02-04T06:57:19;71718.88;;;20.34
64600;BMP280;6553;48.412;9.514;2023-02-04T06:59:45;71706.53;;;20.25
64600;BMP280;6553;48.412;9.514;2023-02-04T07:02:11;71717.69;;;20.36
64600;BMP280;6553;48.412;9.514;2023-02-04T07:04:37;71712.69;;;20.36
64600;BMP280;6553;48.412;9.514;2023-02-04T07:07:03;71711.72;;;20.33
64600;BMP280;6553;48.412;9.514;2023-02-04T07:09:29;71710.69;;;20.32
64600;BMP280;6553;48.412;9.514;2023-02-04T07:11:55;71716.63;;;20.35
64600;BMP280;6553;48.412;9.514;2023-02-04T07:14:20;71714.91;;;20.36
64600;BMP280;6553;48.412;9.514;2023-02-04T07:16:46;71712.69;;;20.36
64600;BMP280;6553;48.412;9.514;2023-02-04T07:19:12;71710.03;;;20.34
64600;BMP280;6553;48.412;9.514;2023-02-04T07:21:37;71710.03;;;20.34
64600;BMP280;6553;48.412;9.514;2023-02-04T07:24:03;71713.34;;;20.34
64600;BMP280;6553;48.412;9.514;2023-02-04T07:26:29;71718.88;;;20.34
64600;BMP280;6553;48.412;9.514;2023-02-04T07:28:55;71717.16;;;20.35
64600;BMP280;6553;48.412;9.514;2023-02-04T07:31:21;71707.59;;;20.26
64600;BMP280;6553;48.412;9.514;2023-02-04T07:33:47;71715.44;;;20.36
64600;BMP280;6553;48.412;9.514;2023-02-04T07:36:12;71712.69;;;20.36
64600;BMP280;6553;48.412;9.514;2023-02-04T07:38:38;71717.16;;;20.35
64600;BMP280;6553;48.412;9.514;2023-02-04T07:41:04;71715.44;;;20.36
64600;BMP280;6553;48.412;9.514;2023-02-04T07:43:30;71715.59;;;20.34
64600;BMP280;6553;48.412;9.514;2023-02-04T07:45:55;71720.47;;;20.36
64600;BMP280;6553;48.412;9.514;2023-02-04T07:48:21;71715.59;;;20.34
64600;BMP280;6553;48.412;9.514;2023-02-04T07:50:47;71719.84;;;20.38
64600;BMP280;6553;48.412;9.514;2023-02-04T07:53:13;71718.75;;;20.37
64600;BMP280;6553;48.412;9.514;2023-02-04T07:55:39;71712.69;;;20.36
64600;BMP280;6553;48.412;9.514;2023-02-04T07:58:04;71719.28;;;20.37
64600;BMP280;6553;48.412;9.514;2023-02-04T08:00:31;71714.41;;;20.35
64600;BMP280;6553;48.412;9.514;2023-02-04T08:02:57;71714.41;;;20.35
64600;BMP280;6553;48.412;9.514;2023-02-04T08:05:22;71718.22;;;20.36
64600;BMP280;6553;48.412;9.514;2023-02-04T08:07:48;71708.97;;;20.33
64600;BMP280;6553;48.412;9.514;2023-02-04T08:10:14;71711.84;;;20.30
64600;BMP280;6553;48.412;9.514;2023-02-04T08:12:39;71717.16;;;20.35
64600;BMP280;6553;48.412;9.514;2023-02-04T08:15:06;71716.13;;;20.34
64600;BMP280;6553;48.412;9.514;2023-02-04T08:17:33;71716.63;;;20.35
64600;BMP280;6553;48.412;9.514;2023-02-04T08:19:59;71718.22;;;20.36
64600;BMP280;6553;48.412;9.514;2023-02-04T08:22:25;71723.75;;;20.36
64600;BMP280;6553;48.412;9.514;2023-02-04T08:24:51;71714.91;;;20.36
64600;BMP280;6553;48.412;9.514;2023-02-04T08:27:16;71711.63;;;20.35
64600;BMP280;6553;48.412;9.514;2023-02-04T08:29:42;71714.91;;;20.36
64600;BMP280;6553;48.412;9.514;2023-02-04T08:32:08;71714.41;;;20.35
64600;BMP280;6553;48.412;9.514;2023-02-04T08:34:40;71713.34;;;20.34
64600;BMP280;6553;48.412;9.514;2023-02-04T08:37:06;71717.16;;;20.35
64600;BMP280;6553;48.412;9.514;2023-02-04T08:39:32;71717.69;;;20.36
64600;BMP280;6553;48.412;9.514;2023-02-04T08:41:58;71717.69;;;20.36
64600;BMP280;6553;48.412;9.514;2023-02-04T08:44:23;71710.03;;;20.34
64600;BMP280;6553;48.412;9.514;2023-02-04T08:46:49;71721.66;;;20.34
64600;BMP280;6553;48.412;9.514;2023-02-04T08:49:15;71717.69;;;20.36
64600;BMP280;6553;48.412;9.514;2023-02-04T08:51:41;71708.13;;;20.27
64600;BMP280;6553;48.412;9.514;2023-02-04T08:54:07;71716.13;;;20.34
64600;BMP280;6553;48.412;9.514;2023-02-04T08:56:33;71712.28;;;20.33
64600;BMP280;6553;48.412;9.514;2023-02-04T08:59:00;71712.81;;;20.34
64600;BMP280;6553;48.412;9.514;2023-02-04T09:01:26;71714.91;;;20.36
64600;BMP280;6553;48.412;9.514;2023-02-04T09:03:51;71711.19;;;20.32
64600;BMP280;6553;48.412;9.514;2023-02-04T09:06:17;71710.56;;;20.34
64600;BMP280;6553;48.412;9.514;2023-02-04T09:08:43;71711.19;;;20.32
64600;BMP280;6553;48.412;9.514;2023-02-04T09:11:09;71711.09;;;20.35
64600;BMP280;6553;48.412;9.514;2023-02-04T09:13:37;71715.59;;;20.34
64600;BMP280;6553;48.412;9.514;2023-02-04T09:16:03;71715.59;;;20.34
64600;BMP280;6553;48.412;9.514;2023-02-04T09:18:29;71722.19;;;20.35
64600;BMP280;6553;48.412;9.514;2023-02-04T09:20:57;71710.03;;;20.34
64600;BMP280;6553;48.412;9.514;2023-02-04T09:23:24;71716.13;;;20.34
64600;BMP280;6553;48.412;9.514;2023-02-04T09:25:50;71718.75;;;20.37
64600;BMP280;6553;48.412;9.514;2023-02-04T09:28:16;71719.41;;;20.35
64600;BMP280;6553;48.412;9.514;2023-02-04T09:30:44;71718.22;;;20.36
64600;BMP280;6553;48.412;9.514;2023-02-04T09:33:11;71722.59;;;20.38
64600;BMP280;6553;48.412;9.514;2023-02-04T09:35:38;71719.84;;;20.38
64600;BMP280;6553;48.412;9.514;2023-02-04T09:38:04;71713.84;;;20.35
64600;BMP280;6553;48.412;9.514;2023-02-04T09:40:33;71717.69;;;20.36
64600;BMP280;6553;48.412;9.514;2023-02-04T09:43:03;71720.38;;;20.38
64600;BMP280;6553;48.412;9.514;2023-02-04T09:45:34;71719.84;;;20.38
64600;BMP280;6553;48.412;9.514;2023-02-04T09:48:03;71716.94;;;20.40
64600;BMP280;6553;48.412;9.514;2023-02-04T09:50:30;71716.53;;;20.37
64600;BMP280;6553;48.412;9.514;2023-02-04T09:53:00;71719.16;;;20.40
64600;BMP280;6553;48.412;9.514;2023-02-04T09:55:39;71721.41;;;20.39
64600;BMP280;6553;48.412;9.514;2023-02-04T09:58:15;71719.16;;;20.40
64600;BMP280;6553;48.412;9.514;2023-02-04T10:00:46;71720.88;;;20.39
64600;BMP280;6553;48.412;9.514;2023-02-04T10:03:18;71718.63;;;20.39
64600;BMP280;6553;48.412;9.514;2023-02-04T10:05:46;71719.28;;;20.37
64600;BMP280;6553;48.412;9.514;2023-02-04T10:08:19;71716.41;;;20.40
64600;BMP280;6553;48.412;9.514;2023-02-04T10:10:48;71719.28;;;20.37
64600;BMP280;6553;48.412;9.514;2023-02-04T10:13:25;71718.63;;;20.39
64600;BMP280;6553;48.412;9.514;2023-02-04T10:15:54;71720.25;;;20.41
64600;BMP280;6553;48.412;9.514;2023-02-04T10:18:38;71723.00;;;20.41
64600;BMP280;6553;48.412;9.514;2023-02-04T10:21:18;71723.53;;;20.41
64600;BMP280;6553;48.412;9.514;2023-02-04T10:23:50;71724.50;;;20.45
64600;BMP280;6553;48.412;9.514;2023-02-04T10:26:21;71720.66;;;20.44
64600;BMP280;6553;48.412;9.514;2023-02-04T10:28:47;71719.59;;;20.43
64600;BMP280;6553;48.412;9.514;2023-02-04T10:31:34;71726.72;;;20.44
64600;BMP280;6553;48.412;9.514;2023-02-04T10:34:36;71724.50;;;20.45
64600;BMP280;6553;48.412;9.514;2023-02-04T10:37:30;71724.50;;;20.45
64600;BMP280;6553;48.412;9.514;2023-02-04T10:39:56;71730.97;;;20.48
64600;BMP280;6553;48.412;9.514;2023-02-04T10:42:30;71722.38;;;20.43
64600;BMP280;6553;48.412;9.514;2023-02-04T10:44:57;71723.31;;;20.46
64600;BMP280;6553;48.412;9.514;2023-02-04T10:47:29;71723.53;;;20.41
64600;BMP280;6553;48.412;9.514;2023-02-04T10:50:14;71723.31;;;20.46
64600;BMP280;6553;48.412;9.514;2023-02-04T10:52:47;71726.63;;;20.47
64600;BMP280;6553;48.412;9.514;2023-02-04T10:55:21;71728.19;;;20.48
64600;BMP280;6553;48.412;9.514;2023-02-04T10:57:50;71723.41;;;20.44
64600;BMP280;6553;48.412;9.514;2023-02-04T11:00:24;71733.09;;;20.50
64600;BMP280;6553;48.412;9.514;2023-02-04T11:03:01;71735.63;;;20.55
64600;BMP280;6553;48.412;9.514;2023-02-04T11:05:34;71739.47;;;20.57
64600;BMP280;6553;48.412;9.514;2023-02-04T11:08:02;71742.66;;;20.60
64600;BMP280;6553;48.412;9.514;2023-02-04T11:10:32;71740.53;;;20.58
64600;BMP280;6553;48.412;9.514;2023-02-04T11:13:05;71748.09;;;20.62
64600;BMP280;6553;48.412;9.514;2023-02-04T11:15:43;71744.78;;;20.62
64600;BMP280;6553;48.412;9.514;2023-02-04T11:20:49;71743.63;;;20.63
64600;BMP280;6553;48.412;9.514;2023-02-04T11:26:17;71613.63;;;19.37
64600;BMP280;6553;48.412;9.514;2023-02-04T11:39:43;71724.50;;;20.45
64600;BMP280;6553;48.412;9.514;2023-02-04T11:45:11;71734.59;;;20.54
64600;BMP280;6553;48.412;9.514;2023-02-04T11:47:38;71741.06;;;20.58
64600;BMP280;6553;48.412;9.514;2023-02-04T11:50:20;71739.88;;;20.60
64600;BMP280;6553;48.412;9.514;2023-02-04T11:52:46;71743.19;;;20.60
64600;BMP280;6553;48.412;9.514;2023-02-04T11:55:12;71744.78;;;20.62
64600;BMP280;6553;48.412;9.514;2023-02-04T11:57:42;71744.78;;;20.62
64600;BMP280;6553;48.412;9.514;2023-02-04T12:00:30;71744.78;;;20.62
64600;BMP280;6553;48.412;9.514;2023-02-04T12:03:02;71746.47;;;20.61
64600;BMP280;6553;48.412;9.514;2023-02-04T12:08:11;71740.41;;;20.60
64600;BMP280;6553;48.412;9.514;2023-02-04T12:10:37;71743.72;;;20.61
64600;BMP280;6553;48.412;9.514;2023-02-04T12:13:16;71740.41;;;20.60
64600;BMP280;6553;48.412;9.514;2023-02-04T12:16:00;71739.88;;;20.60
64600;BMP280;6553;48.412;9.514;2023-02-04T12:18:27;71744.91;;;20.59
64600;BMP280;6553;48.412;9.514;2023-02-04T12:20:55;71736.72;;;20.57
64600;BMP280;6553;48.412;9.514;2023-02-04T12:23:22;71743.19;;;20.60
64600;BMP280;6553;48.412;9.514;2023-02-04T12:25:48;71743.72;;;20.61
64600;BMP280;6553;48.412;9.514;2023-02-04T12:28:14;71738.16;;;20.61
64600;BMP280;6553;48.412;9.514;2023-02-04T12:30:40;71739.38;;;20.59
64600;BMP280;6553;48.412;9.514;2023-02-04T12:33:06;71744.25;;;20.61
64600;BMP280;6553;48.412;9.514;2023-02-04T12:35:33;71740.00;;;20.57
64600;BMP280;6553;48.412;9.514;2023-02-04T12:37:59;71745.97;;;20.60
64600;BMP280;6553;48.412;9.514;2023-02-04T12:40:25;71748.22;;;20.60
64600;BMP280;6553;48.412;9.514;2023-02-04T12:42:51;71746.47;;;20.61
64600;BMP280;6553;48.412;9.514;2023-02-04T12:45:18;71745.84;;;20.63
64600;BMP280;6553;48.412;9.514;2023-02-04T12:47:44;71745.84;;;20.63
64600;BMP280;6553;48.412;9.514;2023-02-04T12:50:14;71745.84;;;20.63
64600;BMP280;6553;48.412;9.514;2023-02-04T12:52:40;71745.44;;;20.60
64600;BMP280;6553;48.412;9.514;2023-02-04T12:55:08;71743.09;;;20.63
64600;BMP280;6553;48.412;9.514;2023-02-04T12:57:34;71746.94;;;20.64
64600;BMP280;6553;48.412;9.514;2023-02-04T13:00:00;71743.19;;;20.60
64600;BMP280;6553;48.412;9.514;2023-02-04T13:02:29;71746.94;;;20.64
64600;BMP280;6553;48.412;9.514;2023-02-04T13:04:55;71747.44;;;20.64
64600;BMP280;6553;48.412;9.514;2023-02-04T13:07:22;71751.81;;;20.66
64600;BMP280;6553;48.412;9.514;2023-02-04T13:09:48;71746.25;;;20.66
64600;BMP280;6553;48.412;9.514;2023-02-04T13:12:14;71741.88;;;20.64
64600;BMP280;6553;48.412;9.514;2023-02-04T13:14:41;71745.19;;;20.65
64600;BMP280;6553;48.412;9.514;2023-02-04T13:17:08;71745.72;;;20.65
64600;BMP280;6553;48.412;9.514;2023-02-04T13:19:33;71750.09;;;20.67
64600;BMP280;6553;48.412;9.514;2023-02-04T13:22:00;71749.56;;;20.66
64600;BMP280;6553;48.412;9.514;2023-02-04T13:24:27;71747.44;;;20.64
64600;BMP280;6553;48.412;9.514;2023-02-04T13:26:53;71750.72;;;20.65
64600;BMP280;6553;48.412;9.514;2023-02-04T13:29:19;71743.72;;;20.61
64600;BMP280;6553;48.412;9.514;2023-02-04T13:31:47;71744.78;;;20.62
64600;BMP280;6553;48.412;9.514;2023-02-04T13:34:13;71744.78;;;20.62
64600;BMP280;6553;48.412;9.514;2023-02-04T13:36:38;71751.41;;;20.63
64600;BMP280;6553;48.412;9.514;2023-02-04T13:39:05;71748.09;;;20.62
64600;BMP280;6553;48.412;9.514;2023-02-04T13:41:31;71743.63;;;20.63
64600;BMP280;6553;48.412;9.514;2023-02-04T13:43:56;71743.72;;;20.61
64600;BMP280;6553;48.412;9.514;2023-02-04T13:46:23;71746.41;;;20.63
64600;BMP280;6553;48.412;9.514;2023-02-04T13:48:49;71743.72;;;20.61
64600;BMP280;6553;48.412;9.514;2023-02-04T13:51:16;71746.94;;;20.64
64600;BMP280;6553;48.412;9.514;2023-02-04T13:53:42;71748.09;;;20.62
64600;BMP280;6553;48.412;9.514;2023-02-04T13:56:08;71741.47;;;20.61
64600;BMP280;6553;48.412;9.514;2023-02-04T13:58:33;71739.78;;;20.62
64600;BMP280;6553;48.412;9.514;2023-02-04T14:00:59;71744.16;;;20.64
64600;BMP280;6553;48.412;9.514;2023-02-04T14:03:27;71746.94;;;20.64
64600;BMP280;6553;48.412;9.514;2023-02-04T14:05:53;71737.13;;;20.60
64600;BMP280;6553;48.412;9.514;2023-02-04T14:08:21;71738.69;;;20.61
64600;BMP280;6553;48.412;9.514;2023-02-04T14:10:48;71744.78;;;20.62
64600;BMP280;6553;48.412;9.514;2023-02-04T14:13:14;71743.19;;;20.60
64600;BMP280;6553;48.412;9.514;2023-02-04T14:15:40;71737.22;;;20.57
64600;BMP280;6553;48.412;9.514;2023-02-04T14:18:08;71738.69;;;20.61
64600;BMP280;6553;48.412;9.514;2023-02-04T14:20:34;71736.59;;;20.59
64600;BMP280;6553;48.412;9.514;2023-02-04T14:23:01;71738.16;;;20.61
64600;BMP280;6553;48.412;9.514;2023-02-04T14:25:26;71740.53;;;20.58
64600;BMP280;6553;48.412;9.514;2023-02-04T14:27:52;71743.72;;;20.61
64600;BMP280;6553;48.412;9.514;2023-02-04T14:30:27;71742.00;;;20.62
64600;BMP280;6553;48.412;9.514;2023-02-04T14:32:54;71745.44;;;20.60
64600;BMP280;6553;48.412;9.514;2023-02-04T14:35:20;71742.00;;;20.62
64600;BMP280;6553;48.412;9.514;2023-02-04T14:37:46;71742.66;;;20.60
64600;BMP280;6553;48.412;9.514;2023-02-04T14:40:14;71743.72;;;20.61
64600;BMP280;6553;48.412;9.514;2023-02-04T14:42:40;71741.59;;;20.59
64600;BMP280;6553;48.412;9.514;2023-02-04T14:45:09;71744.78;;;20.62